createdAt,value
2019-05-18T00:01:59.793Z,3.00
2019-05-18T00:05:36.167Z,3.33
2019-05-18T00:12:47.805Z,2.80
2019-05-18T00:18:44.908Z,2.97
2019-05-18T00:21:23.048Z,2.80
2019-05-18T00:24:12.425Z,2.90
2019-05-18T00:26:57.647Z,2.87
2019-05-18T00:29:42.274Z,3.10
2019-05-18T00:32:35.253Z,3.00
2019-05-18T00:35:16.742Z,3.20
2019-05-18T00:37:58.894Z,3.43
2019-05-18T00:40:30.006Z,2.90
2019-05-18T00:43:00.607Z,4.30
2019-05-18T00:45:31.170Z,3.90
2019-05-18T00:48:01.749Z,5.17
2019-05-18T00:50:32.704Z,4.00
2019-05-18T00:53:03.248Z,4.43
2019-05-18T00:55:33.879Z,4.07
2019-05-18T00:58:04.529Z,4.23
2019-05-18T01:00:35.342Z,4.30
2019-05-18T01:03:06.430Z,3.80
2019-05-18T01:05:38.154Z,3.90
2019-05-18T01:08:08.998Z,5.00
2019-05-18T01:10:39.643Z,4.27
2019-05-18T01:13:12.658Z,4.30
2019-05-18T01:15:43.336Z,4.57
2019-05-18T01:18:13.911Z,5.50
2019-05-18T01:20:44.773Z,5.03
2019-05-18T01:23:15.441Z,4.40
2019-05-18T01:25:46.181Z,5.80
2019-05-18T01:28:17.291Z,5.00
2019-05-18T01:30:48.383Z,5.03
2019-05-18T01:33:18.903Z,5.07
2019-05-18T01:35:51.341Z,5.27
2019-05-18T01:38:23.077Z,5.13
2019-05-18T01:40:53.996Z,5.30
2019-05-18T01:43:24.577Z,4.67
2019-05-18T01:45:55.176Z,4.90
2019-05-18T01:48:26.744Z,4.40
2019-05-18T01:50:58.069Z,4.43
2019-05-18T01:53:28.745Z,3.97
2019-05-18T01:56:00.293Z,4.13
2019-05-18T01:58:30.925Z,4.03
2019-05-18T02:01:01.496Z,3.70
2019-05-18T02:03:35.288Z,3.40
2019-05-18T02:06:10.005Z,3.40
2019-05-18T02:08:41.137Z,3.43
2019-05-18T02:11:11.714Z,4.27
2019-05-18T02:13:42.733Z,2.73
2019-05-18T02:16:13.272Z,3.10
2019-05-18T02:18:44.698Z,3.30
2019-05-18T02:21:15.761Z,4.27
2019-05-18T02:23:46.265Z,3.43
2019-05-18T02:26:16.825Z,3.50
2019-05-18T02:28:47.779Z,3.73
2019-05-18T02:31:18.388Z,3.30
2019-05-18T02:33:49.536Z,3.17
2019-05-18T02:36:20.364Z,3.67
2019-05-18T02:38:50.958Z,2.67
2019-05-18T02:41:21.598Z,3.13
2019-05-18T02:43:52.703Z,2.90
2019-05-18T02:46:23.856Z,3.57
2019-05-18T02:48:54.546Z,3.30
2019-05-18T02:51:25.117Z,3.77
2019-05-18T02:53:56.259Z,3.87
2019-05-18T02:56:26.822Z,3.77
2019-05-18T02:58:57.843Z,4.07
2019-05-18T03:01:29.021Z,3.90
2019-05-18T03:03:59.527Z,3.83
2019-05-18T03:06:30.121Z,3.43
2019-05-18T03:09:00.629Z,3.43
2019-05-18T03:11:32.913Z,3.63
2019-05-18T03:14:03.565Z,3.50
2019-05-18T03:16:34.423Z,3.40
2019-05-18T03:19:08.313Z,3.40
2019-05-18T03:21:37.339Z,3.30
2019-05-18T03:24:07.895Z,3.73
2019-05-18T03:26:38.790Z,3.33
2019-05-18T03:29:09.390Z,4.30
2019-05-18T03:31:40.457Z,4.03
2019-05-18T03:34:11.022Z,4.30
2019-05-18T03:36:41.540Z,3.57
2019-05-18T03:39:12.043Z,4.03
2019-05-18T03:41:42.585Z,3.50
2019-05-18T03:44:13.094Z,4.37
2019-05-18T03:46:44.558Z,4.40
2019-05-18T03:49:26.284Z,3.60
2019-05-18T03:51:47.676Z,3.87
2019-05-18T03:54:18.630Z,3.37
2019-05-18T03:56:49.237Z,3.53
2019-05-18T03:59:20.300Z,3.90
2019-05-18T04:01:50.819Z,3.17
2019-05-18T04:04:21.793Z,4.00
2019-05-18T04:06:52.771Z,3.60
2019-05-18T04:09:24.177Z,3.73
2019-05-18T04:11:54.643Z,3.50
2019-05-18T04:14:25.245Z,3.67
2019-05-18T04:16:58.505Z,3.73
2019-05-18T04:19:44.715Z,3.17
2019-05-18T04:22:01.156Z,3.70
2019-05-18T04:24:31.657Z,4.23
2019-05-18T04:27:02.644Z,5.13
2019-05-18T04:29:33.169Z,3.93
2019-05-18T04:32:03.720Z,3.97
2019-05-18T04:34:34.181Z,4.97
2019-05-18T04:37:05.170Z,5.30
2019-05-18T04:39:36.705Z,6.10
2019-05-18T04:42:07.649Z,4.30
2019-05-18T04:44:38.143Z,4.73
2019-05-18T04:47:08.615Z,4.67
2019-05-18T04:49:39.504Z,6.33
2019-05-18T04:52:10.484Z,3.87
2019-05-18T04:54:40.940Z,4.67
2019-05-18T04:57:11.483Z,4.03
2019-05-18T04:59:42.421Z,3.23
2019-05-18T05:02:12.981Z,4.67
2019-05-18T05:04:43.487Z,3.73
2019-05-18T05:07:14.236Z,4.40
2019-05-18T05:09:44.719Z,3.50
2019-05-18T05:12:15.208Z,3.37
2019-05-18T05:14:45.762Z,3.73
2019-05-18T05:17:16.260Z,3.87
2019-05-18T05:19:47.183Z,3.60
2019-05-18T05:22:17.983Z,3.10
2019-05-18T05:24:48.513Z,3.33
2019-05-18T05:27:19.009Z,4.80
2019-05-18T05:29:49.563Z,5.17
2019-05-18T05:32:20.448Z,4.93
2019-05-18T05:34:51.005Z,6.70
2019-05-18T05:37:21.916Z,5.33
2019-05-18T05:39:52.843Z,6.27
2019-05-18T05:42:23.399Z,5.70
2019-05-18T05:44:53.903Z,6.87
2019-05-18T05:47:24.783Z,5.37
2019-05-18T05:49:55.768Z,4.33
2019-05-18T05:52:26.651Z,4.90
2019-05-18T05:54:57.132Z,7.73
2019-05-18T05:57:27.636Z,7.83
2019-05-18T05:59:58.160Z,6.13
2019-05-18T06:02:29.689Z,5.43
2019-05-18T06:05:00.195Z,5.70
2019-05-18T06:07:30.726Z,7.77
2019-05-18T06:10:01.176Z,6.90
2019-05-18T06:12:32.323Z,5.40
2019-05-18T06:15:02.821Z,4.33
2019-05-18T06:17:33.372Z,6.87
2019-05-18T06:20:03.889Z,7.03
2019-05-18T06:22:34.499Z,5.20
2019-05-18T06:25:05.671Z,4.80
2019-05-18T06:27:36.608Z,5.03
2019-05-18T06:30:08.088Z,6.30
2019-05-18T06:32:38.622Z,6.63
2019-05-18T06:35:10.014Z,7.47
2019-05-18T06:37:40.564Z,7.10
2019-05-18T06:40:11.149Z,6.67
2019-05-18T06:42:41.654Z,6.17
2019-05-18T06:45:12.740Z,5.03
2019-05-18T06:47:43.763Z,5.70
2019-05-18T06:50:14.712Z,4.60
2019-05-18T06:52:45.468Z,4.87
2019-05-18T06:55:15.970Z,4.63
2019-05-18T06:57:47.596Z,4.80
2019-05-18T07:00:19.232Z,3.43
2019-05-18T07:02:49.688Z,3.67
2019-05-18T07:05:21.660Z,3.83
2019-05-18T07:07:52.224Z,3.60
2019-05-18T07:10:23.137Z,3.90
2019-05-18T07:12:53.726Z,4.43
2019-05-18T07:15:24.764Z,3.77
2019-05-18T07:17:55.299Z,3.53
2019-05-18T07:20:26.763Z,2.60
2019-05-18T07:22:58.320Z,3.53
2019-05-18T07:25:31.181Z,3.27
2019-05-18T07:28:01.793Z,3.00
2019-05-18T07:30:33.691Z,3.57
2019-05-18T07:33:04.756Z,6.30
2019-05-18T07:35:35.794Z,3.80
2019-05-18T07:38:06.301Z,3.50
2019-05-18T07:40:37.394Z,2.77
2019-05-18T07:43:07.967Z,2.97
2019-05-18T07:45:38.935Z,2.90
2019-05-18T07:48:09.436Z,4.50
2019-05-18T07:50:40.598Z,4.20
2019-05-18T07:53:11.943Z,4.00
2019-05-18T07:55:43.444Z,3.00
2019-05-18T07:58:14.804Z,4.43
2019-05-18T08:00:45.377Z,3.93
2019-05-18T08:03:15.864Z,3.60
2019-05-18T08:05:46.816Z,3.20
2019-05-18T08:08:17.744Z,3.73
2019-05-18T08:10:49.170Z,3.20
2019-05-18T08:13:20.539Z,3.63
2019-05-18T08:15:51.147Z,3.27
2019-05-18T08:18:22.029Z,3.07
2019-05-18T08:20:52.575Z,3.80
2019-05-18T08:23:23.640Z,4.17
2019-05-18T08:25:54.296Z,3.33
2019-05-18T08:28:25.244Z,3.07
2019-05-18T08:30:56.193Z,5.63
2019-05-18T08:33:26.734Z,5.30
2019-05-18T08:35:57.271Z,5.33
2019-05-18T08:38:27.808Z,5.07
2019-05-18T08:40:58.373Z,3.60
2019-05-18T08:43:53.540Z,2.90
2019-05-18T08:47:14.366Z,3.93
2019-05-18T08:53:49.043Z,3.67
2019-05-18T08:56:43.788Z,2.63
2019-05-18T08:59:17.680Z,2.33
2019-05-18T09:01:48.266Z,2.90
2019-05-18T09:04:19.251Z,6.03
2019-05-18T09:06:50.456Z,4.83
2019-05-18T09:09:22.008Z,3.98
2019-05-18T09:11:53.255Z,2.95
2019-05-18T09:14:25.307Z,5.47
2019-05-18T09:16:55.885Z,5.05
2019-05-18T09:19:27.484Z,5.67
2019-05-18T09:21:58.970Z,4.33
2019-05-18T09:24:59.540Z,5.80
2019-05-18T09:31:00.866Z,4.22
2019-05-18T09:33:55.376Z,2.90
2019-05-18T09:36:27.923Z,3.15
2019-05-18T09:38:59.082Z,2.60
2019-05-18T09:41:30.080Z,3.55
2019-05-18T09:44:01.952Z,3.37
2019-05-18T09:46:33.053Z,4.23
2019-05-18T09:49:04.749Z,3.90
2019-05-18T09:51:35.260Z,4.80
2019-05-18T09:54:06.281Z,5.90
2019-05-18T09:56:37.007Z,4.47
2019-05-18T09:59:07.450Z,4.23
2019-05-18T10:02:40.865Z,6.20
2019-05-18T10:06:02.312Z,4.37
2019-05-18T10:08:35.757Z,4.30
2019-05-18T10:11:38.376Z,5.23
2019-05-18T10:14:09.656Z,4.47
2019-05-18T10:16:40.140Z,3.87
2019-05-18T10:19:10.716Z,4.97
2019-05-18T10:21:41.880Z,5.28
2019-05-18T10:24:12.698Z,4.33
2019-05-18T10:26:43.217Z,3.17
2019-05-18T10:29:14.178Z,7.95
2019-05-18T10:31:44.649Z,9.00
2019-05-18T10:34:15.504Z,9.65
2019-05-18T10:36:46.032Z,7.28
2019-05-18T10:39:49.528Z,6.17
2019-05-18T10:42:52.283Z,11.12
2019-05-18T10:45:25.698Z,10.93
2019-05-18T10:47:56.613Z,8.78
2019-05-18T10:50:38.364Z,7.20
2019-05-18T10:53:09.157Z,7.30
2019-05-18T10:55:39.605Z,4.83
2019-05-18T10:58:10.055Z,6.55
2019-05-18T11:00:41.647Z,6.60
2019-05-18T11:03:12.219Z,4.28
2019-05-18T11:05:43.177Z,5.28
2019-05-18T11:08:14.090Z,5.97
2019-05-18T11:11:08.424Z,5.10
2019-05-18T11:13:42.660Z,4.95
2019-05-18T11:16:13.557Z,4.70
2019-05-18T11:18:55.537Z,6.35
2019-05-18T11:21:26.016Z,5.35
2019-05-18T11:23:57.019Z,7.50
2019-05-18T11:26:27.564Z,4.17
2019-05-18T11:28:58.056Z,4.87
2019-05-18T11:31:28.517Z,4.20
2019-05-18T11:33:59.664Z,4.58
2019-05-18T11:36:30.174Z,5.03
2019-05-18T11:39:01.205Z,4.45
2019-05-18T11:41:32.828Z,4.20
2019-05-18T11:44:34.675Z,6.17
2019-05-18T11:47:08.901Z,3.37
2019-05-18T11:49:39.869Z,3.58
2019-05-18T11:52:10.430Z,3.00
2019-05-18T11:54:40.974Z,4.37
2019-05-18T11:57:11.552Z,4.22
2019-05-18T11:59:41.918Z,4.05
2019-05-18T12:02:13.443Z,4.87
2019-05-18T12:04:44.228Z,4.70
2019-05-18T12:07:14.733Z,4.85
2019-05-18T12:09:46.041Z,4.90
2019-05-18T12:12:16.423Z,3.37
2019-05-18T12:14:46.824Z,2.98
2019-05-18T12:17:17.595Z,3.52
2019-05-18T12:19:47.963Z,3.75
2019-05-18T12:22:18.355Z,3.20
2019-05-18T12:24:48.720Z,4.97
2019-05-18T12:27:19.449Z,3.05
2019-05-18T12:29:49.909Z,4.85
2019-05-18T12:32:20.656Z,3.77
2019-05-18T12:34:51.117Z,2.70
2019-05-18T12:37:23.309Z,2.25
2019-05-18T12:39:54.700Z,3.40
2019-05-18T12:42:25.479Z,3.92
2019-05-18T12:44:55.857Z,4.35
2019-05-18T12:47:26.425Z,3.42
2019-05-18T12:49:57.784Z,3.35
2019-05-18T12:52:29.340Z,2.95
2019-05-18T12:55:00.268Z,3.65
2019-05-18T12:57:30.911Z,3.02
2019-05-18T13:00:01.471Z,4.05
2019-05-18T13:02:31.989Z,2.50
2019-05-18T13:05:02.517Z,2.60
2019-05-18T13:07:33.164Z,1.98
2019-05-18T13:10:03.813Z,2.15
2019-05-18T13:12:35.788Z,1.65
2019-05-18T13:15:08.805Z,1.98
2019-05-18T13:17:39.621Z,2.12
2019-05-18T13:20:10.770Z,2.33
2019-05-18T13:23:12.042Z,12.85
2019-05-18T13:25:42.854Z,4.00
2019-05-18T13:28:14.018Z,2.15
2019-05-18T13:30:44.680Z,1.47
2019-05-18T13:33:16.488Z,3.20
2019-05-18T13:35:47.109Z,1.57
2019-05-18T13:38:17.637Z,2.92
2019-05-18T13:40:48.165Z,1.40
2019-05-18T13:43:19.142Z,1.52
2019-05-18T13:45:49.837Z,3.83
2019-05-18T13:48:21.928Z,1.92
2019-05-18T13:50:53.056Z,1.17
2019-05-18T13:53:24.096Z,1.60
2019-05-18T13:55:55.178Z,2.12
2019-05-18T13:58:26.285Z,2.60
2019-05-18T14:00:57.704Z,1.70
2019-05-18T14:03:28.674Z,1.72
2019-05-18T14:05:59.174Z,1.37
2019-05-18T14:08:30.144Z,1.40
2019-05-18T14:11:01.583Z,1.72
2019-05-18T14:13:32.924Z,1.40
2019-05-18T14:16:04.252Z,1.30
2019-05-18T14:18:35.191Z,2.30
2019-05-18T14:21:07.864Z,1.20
2019-05-18T14:23:38.475Z,1.10
2019-05-18T14:26:09.327Z,1.47
2019-05-18T14:28:40.329Z,1.15
2019-05-18T14:31:11.381Z,1.17
2019-05-18T14:33:41.995Z,1.30
2019-05-18T14:36:12.555Z,1.00
2019-05-18T14:38:43.528Z,1.00
2019-05-18T14:41:14.975Z,1.00
2019-05-18T14:43:46.552Z,1.65
2019-05-18T14:46:17.463Z,1.25
2019-05-18T14:48:50.587Z,1.70
2019-05-18T14:51:21.092Z,1.25
2019-05-18T14:53:51.585Z,1.05
2019-05-18T14:56:22.619Z,1.00
2019-05-18T14:58:53.584Z,1.50
2019-05-18T15:01:24.191Z,1.30
2019-05-18T15:03:55.261Z,1.40
2019-05-18T15:06:26.168Z,2.27
2019-05-18T15:08:57.277Z,1.40
2019-05-18T15:11:28.757Z,1.50
2019-05-18T15:13:59.648Z,1.00
2019-05-18T15:16:30.112Z,2.00
2019-05-18T15:19:01.703Z,2.08
2019-05-18T15:21:32.616Z,1.35
2019-05-18T15:24:03.473Z,1.62
2019-05-18T15:26:34.416Z,2.33
2019-05-18T15:29:05.304Z,2.37
2019-05-18T15:31:35.868Z,1.32
2019-05-18T15:34:06.309Z,2.55
2019-05-18T15:36:36.829Z,2.45
2019-05-18T15:39:07.930Z,2.45
2019-05-18T15:41:38.405Z,1.87
2019-05-18T15:44:09.408Z,2.37
2019-05-18T15:46:40.453Z,2.10
2019-05-18T15:49:11.473Z,1.40
2019-05-18T15:51:41.980Z,1.77
2019-05-18T15:54:12.452Z,1.47
2019-05-18T15:56:44.327Z,1.25
2019-05-18T15:59:16.675Z,1.30
2019-05-18T16:01:47.550Z,1.80
2019-05-18T16:04:18.150Z,1.67
2019-05-18T16:06:49.261Z,1.95
2019-05-18T16:09:20.799Z,1.45
2019-05-18T16:11:51.928Z,1.37
2019-05-18T16:14:22.458Z,1.40
2019-05-18T16:16:55.134Z,1.50
2019-05-18T16:19:26.110Z,3.08
2019-05-18T16:21:57.048Z,2.00
2019-05-18T16:24:28.959Z,2.12
2019-05-18T16:26:59.872Z,1.85
2019-05-18T16:29:31.995Z,3.17
2019-05-18T16:32:04.109Z,4.03
2019-05-18T16:34:35.104Z,6.53
2019-05-18T16:37:06.040Z,4.77
2019-05-18T16:39:36.514Z,3.13
2019-05-18T16:42:07.017Z,2.00
2019-05-18T16:44:39.503Z,4.30
2019-05-18T16:47:10.555Z,4.37
2019-05-18T16:49:41.021Z,3.53
2019-05-18T16:52:11.501Z,2.10
2019-05-18T16:54:42.428Z,2.10
2019-05-18T16:57:12.984Z,2.40
2019-05-18T16:59:44.087Z,1.80
2019-05-18T17:02:29.137Z,6.50
2019-05-18T17:04:47.576Z,6.10
2019-05-18T17:07:18.139Z,8.43
2019-05-18T17:09:48.672Z,2.90
2019-05-18T17:12:19.175Z,2.87
2019-05-18T17:14:50.248Z,2.10
2019-05-18T17:17:20.780Z,2.27
2019-05-18T17:19:52.603Z,1.60
2019-05-18T17:22:23.152Z,1.73
2019-05-18T17:24:54.219Z,1.50
2019-05-18T17:27:25.134Z,1.60
2019-05-18T17:29:56.605Z,5.27
2019-05-18T17:32:27.674Z,3.10
2019-05-18T17:34:59.080Z,1.40
2019-05-18T17:37:29.657Z,2.20
2019-05-18T17:40:00.474Z,2.93
2019-05-18T17:42:31.580Z,2.37
2019-05-18T17:45:02.189Z,2.37
2019-05-18T17:47:33.392Z,2.60
2019-05-18T17:50:04.819Z,3.17
2019-05-18T17:52:35.805Z,2.00
2019-05-18T17:55:06.965Z,2.53
2019-05-18T17:57:37.743Z,1.83
2019-05-18T18:00:08.642Z,2.00
2019-05-18T18:02:40.280Z,1.90
2019-05-18T18:21:51.190Z,1.40
2019-05-18T18:24:36.568Z,2.43
2019-05-18T18:27:42.707Z,1.67
2019-05-18T18:30:52.489Z,2.63
2019-05-18T18:37:57.680Z,1.30
2019-05-18T18:40:31.290Z,2.67
2019-05-18T18:43:02.006Z,2.70
2019-05-18T18:45:51.390Z,1.90
2019-05-18T18:48:31.694Z,3.10
2019-05-18T18:51:02.283Z,1.83
2019-05-18T18:53:34.248Z,1.63
2019-05-18T18:56:07.298Z,2.70
2019-05-18T18:58:41.104Z,1.53
2019-05-18T19:01:12.278Z,1.30
2019-05-18T19:03:43.439Z,1.93
2019-05-18T19:06:14.497Z,2.13
2019-05-18T19:08:46.096Z,2.70
2019-05-18T19:11:17.005Z,1.80
2019-05-18T19:13:48.410Z,3.03
2019-05-18T19:16:19.782Z,2.37
2019-05-18T19:18:50.447Z,2.20
2019-05-18T19:21:21.226Z,2.00
2019-05-18T19:23:51.914Z,3.20
2019-05-18T19:26:23.565Z,5.20
2019-05-18T19:28:57.135Z,3.03
2019-05-18T19:31:37.426Z,2.77
2019-05-18T19:34:16.606Z,2.53
2019-05-18T19:37:01.441Z,3.30
2019-05-18T19:39:32.569Z,2.30
2019-05-18T19:42:09.801Z,2.20
2019-05-18T19:44:50.743Z,2.27
2019-05-18T19:47:29.995Z,2.23
2019-05-18T19:50:04.271Z,2.53
2019-05-18T19:52:36.408Z,1.97
2019-05-18T19:55:25.397Z,2.33
2019-05-18T19:58:08.081Z,1.90
2019-05-18T20:00:29.464Z,2.10
2019-05-18T20:03:00.005Z,2.47
2019-05-18T20:05:30.620Z,2.30
2019-05-18T20:08:03.511Z,2.87
2019-05-18T20:10:36.224Z,1.80
2019-05-18T20:13:07.248Z,3.63
2019-05-18T20:15:43.243Z,1.70
2019-05-18T20:18:13.942Z,2.40
2019-05-18T20:20:45.709Z,1.70
2019-05-18T20:23:17.212Z,1.97
2019-05-18T20:25:52.010Z,2.10
2019-05-18T20:28:26.519Z,1.70
2019-05-18T20:30:58.957Z,1.50
2019-05-18T20:33:37.609Z,2.00
2019-05-18T20:36:17.545Z,2.07
2019-05-18T20:42:42.399Z,2.13
2019-05-18T20:45:14.058Z,2.30
2019-05-18T20:47:45.057Z,2.50
2019-05-18T20:50:16.507Z,1.83
2019-05-18T20:52:47.970Z,1.97
2019-05-18T20:55:18.724Z,2.20
2019-05-18T20:57:50.239Z,2.10
2019-05-18T21:03:59.817Z,1.83
2019-05-18T21:15:18.124Z,2.20
2019-05-18T21:18:30.258Z,2.40
2019-05-18T21:21:46.503Z,2.30
2019-05-18T21:24:27.097Z,2.27
2019-05-18T21:27:01.856Z,1.80
2019-05-18T21:29:46.287Z,2.67
2019-05-18T21:33:07.777Z,2.30
2019-05-18T21:35:47.502Z,1.97
2019-05-18T21:42:44.388Z,2.20
2019-05-18T21:45:15.331Z,2.57
2019-05-18T21:47:54.898Z,3.03
2019-05-18T21:50:53.755Z,2.20
2019-05-18T21:53:29.649Z,3.90
2019-05-18T21:56:00.979Z,4.03
2019-05-18T21:58:32.021Z,2.50
2019-05-18T22:01:09.332Z,2.40
2019-05-18T22:04:34.436Z,2.50
2019-05-18T22:07:35.871Z,2.83
2019-05-18T22:10:24.423Z,2.53
2019-05-18T22:12:45.010Z,3.47
2019-05-18T22:15:22.496Z,3.20
2019-05-18T22:18:06.488Z,2.77
2019-05-18T22:20:43.947Z,2.30
2019-05-18T22:23:19.757Z,2.43
2019-05-18T22:25:59.245Z,2.83
2019-05-18T22:28:33.145Z,2.70
2019-05-18T22:31:03.950Z,3.00
2019-05-18T22:33:34.591Z,2.90
2019-05-18T22:36:06.035Z,4.13
2019-05-18T22:38:36.676Z,2.60
2019-05-18T22:41:07.512Z,2.70
2019-05-18T22:43:39.963Z,2.83
2019-05-18T22:46:10.706Z,2.57
2019-05-18T22:48:41.888Z,2.83
2019-05-18T22:51:13.139Z,2.73
2019-05-18T22:56:58.982Z,3.63
2019-05-18T22:59:29.923Z,3.00
2019-05-18T23:02:00.544Z,3.43
2019-05-18T23:04:34.095Z,3.73
2019-05-18T23:07:04.783Z,3.63
2019-05-18T23:09:35.344Z,3.03
2019-05-18T23:12:06.652Z,2.67
2019-05-18T23:14:37.459Z,3.00
2019-05-18T23:17:08.769Z,3.33
2019-05-18T23:19:39.307Z,3.70
2019-05-18T23:22:10.818Z,3.13
2019-05-18T23:24:41.317Z,4.00
2019-05-18T23:27:11.802Z,4.07
2019-05-18T23:29:42.704Z,3.87
2019-05-18T23:32:13.287Z,4.10
2019-05-18T23:34:43.990Z,3.63
2019-05-18T23:37:15.025Z,3.97
2019-05-18T23:39:45.533Z,4.60
2019-05-18T23:42:16.046Z,3.90
2019-05-18T23:44:47.591Z,3.93
2019-05-18T23:47:18.459Z,3.57
2019-05-18T23:49:49.392Z,4.17
2019-05-18T23:52:19.925Z,4.23
2019-05-18T23:54:50.832Z,4.10
2019-05-18T23:57:21.414Z,3.30
2019-05-18T23:59:52.607Z,3.57
